Latest Coastal Weather Observations for Cerberus

IDV60701

Issued at 1:12 am EST Thursday 3 September 2026 (issued every 10 minutes, with the page automatically refreshed every 10 minutes)

About coastal observations | Map of coastal stations | Coastal observations for VIC | Marine services | Other Formats
Station Details ID: 086361 Name: CERBERUS Lat: -38.36 Lon: 145.18 Height: 12.69 m
Data from the previous 72 hours. | See also: Recent months at Cerberus
Date/Time
EST
Wind Sea
Height
m
Swell Vis
km
Cloud Weather Temp
°C
Press
MSL
hPa
Rain since
9am
mm
Dir  Spd
kts
Gust
kts
Height
m
Period
s
Dir
03/01:00am N 2 7 - - - - - - - 10.9 1009.5 0.0
03/12:30am NNW 2 4 - - - - - - - 10.5 1009.6 0.0
03/12:00am NNW 3 4 - - - - - - - 9.7 1009.8 0.0
 
Date/Time
EST
Wind Sea
Height
m
Swell Vis
km
Cloud Weather Temp
°C
Press
MSL
hPa
Rain since
9am
mm
Dir  Spd
kts
Gust
kts
Height
m
Period
s
Dir
02/11:30pm NNW 3 5 - - - - - - - 10.1 1010.1 0.0
02/11:00pm CALM 0 0 - - - - - - - 11.3 1010.5 0.0
02/10:30pm WNW 5 9 - - - - - - - 12.5 1010.9 0.0
02/10:00pm WNW 5 10 - - - - - - - 12.4 1011.2 0.0
02/09:30pm NW 3 7 - - - - - - - 11.8 1011.4 0.0
02/09:00pm NW 2 3 - - - - - - - 11.3 1011.5 0.0
02/08:30pm NW 3 3 - - - - - - - 10.7 1011.5 0.0
02/08:00pm NW 4 5 - - - - - - - 10.8 1011.4 0.0
02/07:30pm WNW 3 4 - - - - - - - 10.6 1011.1 0.0
02/07:00pm WNW 2 3 - - - - - - - 10.9 1010.9 0.0
02/06:30pm W 3 5 - - - - - - - 11.7 1011.0 0.0
02/06:00pm W 3 6 - - - - - - - 12.5 1010.9 0.0
02/05:30pm W 4 7 - - - - - - - 13.5 1010.7 0.0
02/05:00pm W 8 12 - - - - - - - 14.1 1010.8 0.0
02/04:30pm W 9 12 - - - - - - - 14.6 1011.2 0.0
02/04:00pm W 9 15 - - - - - - - 14.8 1011.5 0.0
02/03:30pm W 10 15 - - - - - - - 15.0 1011.9 0.0
02/03:00pm WNW 10 17 - - - - - - - 15.1 1012.2 0.0
02/02:30pm WNW 8 14 - - - - - - - 15.5 1012.2 0.0
02/02:00pm W 8 13 - - - - - - - 15.4 1012.4 0.0
02/01:30pm NW 7 13 - - - - - - - 14.2 1012.9 0.0
02/01:00pm W 8 12 - - - - - - - 14.5 1013.3 0.0
02/12:30pm WNW 8 14 - - - - - - - 14.0 1014.0 0.0
02/12:00pm WNW 8 12 - - - - - - - 14.8 1014.2 0.0
02/11:30am W 8 13 - - - - - - - 14.3 1014.4 0.0
02/11:00am W 8 13 - - - - - - - 14.4 1014.6 0.0
02/10:30am W 11 19 - - - - - - - 13.7 1014.7 0.0
02/10:00am W 12 18 - - - - - - - 13.3 1014.9 0.0
02/09:30am W 10 15 - - - - - - - 13.1 1014.9 0.0
02/09:00am W 9 16 - - - - - - - 12.7 1015.1 2.6
02/08:30am W 7 14 - - - - - - - 12.5 1015.0 2.6
02/08:00am W 7 12 - - - - - - - 11.6 1014.6 2.6
02/07:30am NW 4 7 - - - - - - - 10.6 1014.5 2.6
02/07:00am NW 3 6 - - - - - - - 10.0 1014.2 2.6
02/06:30am WNW 3 4 - - - - - - - 10.5 1013.7 2.6
02/06:00am WNW 4 6 - - - - - - - 10.9 1013.2 2.6
02/05:30am WNW 2 3 - - - - - - - 11.0 1013.0 2.6
02/05:00am W 4 7 - - - - - - - 11.5 1012.9 2.6
02/04:30am W 4 5 - - - - - - - 11.9 1012.6 2.6
02/04:00am WSW 6 9 - - - - - - - 12.2 1012.3 2.6
02/03:30am WSW 6 9 - - - - - - - 12.7 1012.2 2.4
02/03:00am WSW 7 11 - - - - - - - 13.2 1011.9 1.8
02/02:30am SW 8 14 - - - - - - - 13.5 1012.1 1.8
02/02:00am WNW 7 12 - - - - - - - 14.5 1012.0 1.8
02/01:30am WNW 7 10 - - - - - - - 15.5 1011.9 1.8
02/01:00am WNW 7 12 - - - - - - - 14.9 1011.8 1.8
02/12:30am WNW 10 16 - - - - - - - 15.2 1011.9 1.8
02/12:00am WNW 9 16 - - - - - - Recent precip. 15.1 1012.0 1.8
 
Date/Time
EST
Wind Sea
Height
m
Swell Vis
km
Cloud Weather Temp
°C
Press
MSL
hPa
Rain since
9am
mm
Dir  Spd
kts
Gust
kts
Height
m
Period
s
Dir
01/11:30pm WNW 14 22 - - - - - - - 16.6 1012.1 1.6
01/11:00pm NW 9 14 - - - - - - - 16.4 1011.8 1.6
01/10:30pm NW 7 12 - - - - - - - 15.9 1011.8 1.6
01/10:00pm NNW 7 11 - - - - - - - 15.9 1011.5 1.6
01/09:30pm NNW 6 10 - - - - - - - 15.3 1011.6 1.6
01/09:00pm NNW 7 13 - - - - - - Rain 15.4 1011.6 1.2
01/08:30pm NNW 8 15 - - - - - - - 15.8 1011.5 0.8
01/08:00pm NNW 6 13 - - - - - - - 15.4 1011.4 0.8
01/07:30pm NNW 7 14 - - - - - - - 16.9 1011.9 0.2
01/07:00pm NNW 8 16 - - - - - - - 18.9 1011.5 0.2
01/06:30pm NNW 8 14 - - - - - - - 18.6 1011.9 0.2
01/06:00pm NNW 10 17 - - - - - - - 19.2 1012.2 0.2
01/05:30pm NNW 8 14 - - - - - - - 19.3 1012.4 0.2
01/05:00pm NNW 7 13 - - - - - - - 19.5 1012.5 0.2
01/04:30pm NNW 8 13 - - - - - - - 19.5 1012.6 0.2
01/04:00pm NNW 8 15 - - - - - - - 19.3 1012.7 0.2
01/03:30pm NNW 8 19 - - - - - - - 19.9 1012.6 0.2
01/03:00pm NNW 11 21 - - - - - - - 20.4 1012.5 0.2
01/02:30pm NNW 12 25 - - - - - - - - 1012.5 0.2
01/02:00pm NNW 13 24 - - - - - - - - 1012.9 0.2
01/01:30pm NNW 13 23 - - - - - - - - 1013.6 0.2
01/01:00pm NNW 10 17 - - - - - - - 20.9 1014.5 0.2
01/12:37pm NNW 13 22 - - - - - - - 20.1 1015.0 0.2
01/12:30pm NNW 14 27 - - - - - - - 20.2 1015.2 0.2
01/12:27pm NNW 15 27 - - - - - - - 19.9 1015.2 0.2
01/12:12pm NNW 12 21 - - - - - - - 19.6 1015.4 0.2
01/12:00pm NNW 15 30 - - - - - - - 19.3 1015.5 0.2
01/11:59am NNW 15 30 - - - - - - - 19.4 1015.7 0.2
01/11:47am NNW 14 26 - - - - - - - 19.5 1015.9 0.2
01/11:34am NNW 15 26 - - - - - - - 19.7 1016.0 0.2
01/11:33am NNW 14 26 - - - - - - - 19.7 1016.0 0.2
01/11:30am NNW 13 26 - - - - - - - 19.7 1016.1 0.2
01/11:16am NNW 15 28 - - - - - - - 19.3 1016.2 0.2
01/11:14am NNW 14 28 - - - - - - - 19.4 1016.3 0.2
01/11:00am NNW 17 28 - - - - - - - 19.2 1016.3 0.2
01/10:30am N 15 31 - - - - - - - 18.7 1016.7 0.2
01/10:00am NNW 16 29 - - - - - - - 17.9 1017.3 0.2
01/09:30am NNW 16 29 - - - - - - - 16.9 1017.6 0.2
01/09:00am NNW 15 30 - - - - - - - 15.9 1018.2 0.0
01/08:56am NNW 15 27 - - - - - - - 15.8 1018.3 0.0
01/08:30am NNW 11 21 - - - - - - - 15.3 1019.1 0.0
01/08:00am NNW 11 21 - - - - - - - 14.9 1019.8 0.0
01/07:30am NNW 9 17 - - - - - - - 14.0 1019.9 0.0
01/07:00am N 5 14 - - - - - - - 12.9 1019.9 0.0
01/06:30am N 6 16 - - - - - - - 12.6 1019.8 0.0
01/06:00am NE 3 4 - - - - - - - 11.3 1020.2 0.0
01/05:30am NNE 3 5 - - - - - - - 11.2 1020.4 0.0
01/05:00am N 4 6 - - - - - - - 11.4 1020.7 0.0
01/04:30am N 5 7 - - - - - - - 11.2 1020.8 0.0
01/04:00am N 5 8 - - - - - - - 10.5 1021.3 0.0
01/03:30am NE 1 2 - - - - - - - 6.9 1021.7 0.0
01/03:00am CALM 0 1 - - - - - - - 6.3 1022.0 0.0
01/02:30am NE 1 1 - - - - - - - 6.6 1022.5 0.0
01/02:00am NE 2 3 - - - - - - - 5.2 1023.1 0.0
01/01:30am N 2 3 - - - - - - - 7.7 1023.4 0.0
01/01:00am N 2 3 - - - - - - - 6.9 1023.6 0.0
01/12:30am NNE 2 4 - - - - - - - 5.7 1024.1 0.0
01/12:00am SE 1 2 - - - - - - - 5.5 1024.6 0.0
 
Date/Time
EST
Wind Sea
Height
m
Swell Vis
km
Cloud Weather Temp
°C
Press
MSL
hPa
Rain since
9am
mm
Dir  Spd
kts
Gust
kts
Height
m
Period
s
Dir
31/11:30pm CALM 0 1 - - - - - - - 5.4 1025.3 0.0
31/11:00pm CALM 0 0 - - - - - - - 5.7 1025.7 0.0
31/10:30pm CALM 0 0 - - - - - - - 5.9 1026.0 0.0
31/10:00pm CALM 0 0 - - - - - - - 6.1 1026.2 0.0
31/09:30pm CALM 0 0 - - - - - - - 6.2 1026.3 0.0
31/09:00pm CALM 0 0 - - - - - - - 6.7 1026.6 0.0
31/08:30pm CALM 0 0 - - - - - - - 7.5 1026.7 0.0
31/08:00pm CALM 0 0 - - - - - - - 7.2 1027.0 0.0
31/07:30pm CALM 0 0 - - - - - - - 8.5 1027.3 0.0
31/07:00pm CALM 0 0 - - - - - - - 9.3 1027.4 0.0
31/06:30pm CALM 0 0 - - - - - - - 10.9 1027.5 0.0
31/06:00pm SE 1 2 - - - - - - - 11.8 1027.5 0.0
31/05:30pm S 1 2 - - - - - - - 13.4 1027.5 0.0
31/05:00pm S 2 3 - - - - - - - 14.4 1027.6 0.0
31/04:30pm S 3 4 - - - - - - - 14.9 1027.8 0.0
31/04:00pm SSW 4 5 - - - - - - - 14.9 1028.1 0.0
31/03:30pm SSW 4 5 - - - - - - - 15.4 1028.3 0.0
31/03:00pm SSW 3 5 - - - - - - - 15.4 1028.6 0.0
31/02:30pm ESE 2 3 - - - - - - - 15.7 1029.0 0.0
31/02:00pm SSW 4 6 - - - - - - - 15.2 1029.6 0.0
31/01:30pm W 4 6 - - - - - - - 15.0 1030.0 0.0
31/01:00pm NW 2 5 - - - - - - - 15.5 1030.5 0.0
31/12:30pm NNW 2 7 - - - - - - - 14.4 1030.9 0.0
31/12:00pm NW 4 7 - - - - - - - 13.4 1031.6 0.0
31/11:30am WNW 3 5 - - - - - - - 12.6 1032.0 0.0
31/11:00am WNW 3 6 - - - - - - - 12.4 1032.2 0.0
31/10:30am WNW 2 4 - - - - - - - 12.1 1032.4 0.0
31/10:00am WNW 1 3 - - - - - - - 11.8 1032.5 0.0
31/09:30am WSW 3 4 - - - - - - - 11.5 1032.6 0.0
31/09:00am WNW 3 5 - - - - - - - 11.6 1032.5 0.0
31/08:30am WNW 3 5 - - - - - - - 11.3 1032.5 0.0
31/08:00am WNW 3 5 - - - - - - - 11.1 1032.4 0.0
31/07:30am WNW 2 3 - - - - - - - 11.0 1032.2 0.0
31/07:00am WNW 2 3 - - - - - - - 11.1 1032.1 0.0
31/06:30am CALM 0 0 - - - - - - - 11.0 1032.0 0.0
31/06:00am CALM 0 3 - - - - - - - 10.9 1031.8 0.0
31/05:30am CALM 0 2 - - - - - - - 11.0 1031.9 0.0
31/05:00am CALM 0 1 - - - - - - - 10.8 1031.7 0.0
31/04:30am SW 1 2 - - - - - - - 10.7 1031.8 0.0
31/04:00am SW 1 3 - - - - - - - 10.8 1031.7 0.0
31/03:30am CALM 0 1 - - - - - - - 11.0 1031.9 0.0
31/03:00am SW 2 3 - - - - - - - 11.3 1032.2 0.0
31/02:30am SW 2 4 - - - - - - - 11.3 1032.4 0.0
31/02:00am SW 2 3 - - - - - - - 11.4 1032.7 0.0
31/01:30am SW 2 3 - - - - - - - 11.4 1032.7 0.0

Other formats

Comma delimited format used in spreadsheet applications
http://www.bom.gov.au/fwo/IDV60701/IDV60701.94898.axf

JavaScript Object Notation format (JSON) in row-major order
http://www.bom.gov.au/fwo/IDV60701/IDV60701.94898.json

Data quality

Most of these data are generated automatically and are frequently updated. Quality checks on data are not normally performed. It is possible for incorrect values to appear. Refer to information at About Latest Weather Observations and please check the disclaimer before using these data.